Time;durP1;ratioP1;P1;durP2;ratioP2;P2;SDS_P1;SDS_P2;PMS_P1;PMS_P2;Temp;Humidity;BMP_temperature;BMP_pressure;BME280_temperature;BME280_humidity;BME280_pressure;Samples;Min_cycle;Max_cycle;Signal;HPM_P1;HPM_P2
2022/07/26 00:01:35;;;;;;;0.10;0.10;;;;;;;24.10;42.30;101333.19;16144395;19;129533;-61
2022/07/26 00:06:57;;;;;;;0.90;0.20;;;;;;;24.09;42.52;101341.84;16140746;19;129716;-61
2022/07/26 00:12:19;;;;;;;0.70;0.20;;;;;;;24.09;42.21;101344.66;16143962;19;129588;-61
2022/07/26 00:17:41;;;;;;;0.40;0.20;;;;;;;24.08;42.42;101348.56;16144194;19;129687;-61
2022/07/26 00:23:02;;;;;;;0.38;0.10;;;;;;;24.07;42.25;101350.50;16141051;19;129568;-61
2022/07/26 00:28:24;;;;;;;0.10;0.10;;;;;;;24.05;42.31;101349.94;16134561;19;130493;-61
2022/07/26 00:33:46;;;;;;;0.57;0.05;;;;;;;24.06;42.26;101356.38;16139343;19;129947;-61
2022/07/26 00:39:08;;;;;;;0.50;0.10;;;;;;;24.05;42.44;101357.47;16143736;19;129897;-61
2022/07/26 00:44:37;;;;;;;0.70;0.10;;;;;;;24.06;42.30;101359.16;16142792;19;129523;-61
2022/07/26 00:49:59;;;;;;;0.30;0.10;;;;;;;24.02;42.49;101349.63;16139171;19;130390;-61
2022/07/26 00:55:21;;;;;;;0.60;0.10;;;;;;;24.04;42.52;101353.00;16143924;19;128859;-61
2022/07/26 01:00:43;;;;;;;0.75;0.10;;;;;;;24.03;42.37;101349.38;16142997;19;129621;-63
2022/07/26 01:06:05;;;;;;;0.32;0.03;;;;;;;24.01;42.37;101347.94;16176077;19;129436;-61
2022/07/26 01:11:27;;;;;;;0.30;0.20;;;;;;;24.02;42.36;101346.84;16221822;19;129312;-61
2022/07/26 01:16:50;;;;;;;0.47;0.10;;;;;;;24.03;42.40;101343.78;16221317;19;128270;-61
2022/07/26 01:22:12;;;;;;;0.30;0.03;;;;;;;24.01;42.34;101342.38;16220271;19;128312;-62
2022/07/26 01:27:38;;;;;;;0.50;0.20;;;;;;;23.99;42.76;101337.06;16218240;19;128516;-61
2022/07/26 01:33:00;;;;;;;0.30;0.20;;;;;;;23.99;42.49;101336.22;16218275;19;129062;-61
2022/07/26 01:38:26;;;;;;;0.15;0.10;;;;;;;23.99;42.13;101336.22;16220769;19;128394;-63
2022/07/26 01:43:48;;;;;;;0.47;0.10;;;;;;;23.99;42.55;101339.03;16219583;19;129996;-61
2022/07/26 01:49:10;;;;;;;0.50;0.10;;;;;;;23.98;42.65;101335.38;16215945;19;129383;-62
2022/07/26 01:54:32;;;;;;;0.15;0.00;;;;;;;23.96;42.49;101334.81;16183653;19;128690;-61
2022/07/26 01:59:54;;;;;;;0.20;0.10;;;;;;;23.96;42.60;101348.78;16161318;19;129762;-61
2022/07/26 02:05:16;;;;;;;0.25;0.10;;;;;;;23.96;42.50;101348.78;16154975;19;129111;-61
2022/07/26 02:16:19;;;;;;;0.30;0.10;;;;;;;23.95;42.78;101355.47;16159681;19;129095;-61
2022/07/26 02:21:40;;;;;;;0.57;0.10;;;;;;;23.95;42.57;101341.50;16154598;19;129585;-61
2022/07/26 02:27:03;;;;;;;1.00;0.25;;;;;;;23.95;42.73;101341.50;16155466;19;128939;-61
2022/07/26 02:32:25;;;;;;;0.05;0.00;;;;;;;23.95;42.56;101352.69;16154579;19;130207;-61
2022/07/26 02:37:47;;;;;;;0.20;0.10;;;;;;;23.93;42.77;101358.56;16153603;19;130151;-61
2022/07/26 02:43:09;;;;;;;0.52;0.10;;;;;;;23.92;42.64;101362.47;16142312;19;130535;-61
2022/07/26 02:48:31;;;;;;;0.35;0.13;;;;;;;23.93;42.35;101366.09;16124181;19;129852;-61
2022/07/26 02:53:53;;;;;;;0.50;0.13;;;;;;;23.92;42.66;101370.00;16140775;19;129034;-61
2022/07/26 02:59:14;;;;;;;1.33;0.20;;;;;;;23.91;42.69;101368.31;16149133;19;129728;-61
2022/07/26 03:04:36;;;;;;;0.30;0.10;;;;;;;23.90;42.63;101364.69;16140840;19;131667;-61
2022/07/26 03:09:58;;;;;;;0.25;0.10;;;;;;;23.89;42.65;101376.97;16140013;19;130049;-61
2022/07/26 03:15:20;;;;;;;0.32;0.10;;;;;;;23.88;42.66;101375.28;16147913;19;131667;-61
2022/07/26 03:20:42;;;;;;;0.52;0.17;;;;;;;23.88;42.79;101378.06;16143233;19;129537;-60
2022/07/26 03:26:03;;;;;;;0.68;0.28;;;;;;;23.87;42.68;101384.81;16148102;19;131521;-62
2022/07/26 03:31:25;;;;;;;0.30;0.10;;;;;;;23.87;42.77;101376.41;16147241;19;129420;-61
2022/07/26 03:36:47;;;;;;;0.50;0.10;;;;;;;23.88;42.66;101380.03;16141260;19;129659;-61
2022/07/26 03:42:09;;;;;;;2.58;0.30;;;;;;;23.87;42.81;101387.59;16146815;19;130281;-61
2022/07/26 03:47:31;;;;;;;0.85;0.20;;;;;;;23.86;42.87;101388.72;16142607;19;129703;-61
2022/07/26 03:52:52;;;;;;;2.42;0.30;;;;;;;23.86;42.48;101402.69;16143175;19;129217;-61
2022/07/26 03:58:15;;;;;;;0.30;0.20;;;;;;;23.85;42.70;101401.00;16141216;19;130136;-61
2022/07/26 04:03:37;;;;;;;1.27;0.28;;;;;;;23.84;42.62;101406.84;16142449;19;129000;-61
2022/07/26 04:09:05;;;;;;;1.00;0.25;;;;;;;23.84;42.66;101404.03;16140558;19;131132;-61
2022/07/26 04:14:28;;;;;;;2.22;0.30;;;;;;;23.84;42.76;101407.69;16144233;19;130147;-61
2022/07/26 04:19:50;;;;;;;2.08;0.30;;;;;;;23.85;42.91;101411.31;16143421;19;130115;-61
2022/07/26 04:25:12;;;;;;;0.85;0.10;;;;;;;23.84;42.89;101418.88;16145325;19;129899;-61
2022/07/26 04:30:33;;;;;;;0.90;0.20;;;;;;;23.84;42.89;101420.81;16139027;19;129349;-61
2022/07/26 04:35:55;;;;;;;0.95;0.25;;;;;;;23.83;43.11;101433.94;16137395;19;129534;-61
2022/07/26 04:41:17;;;;;;;0.08;0.05;;;;;;;23.82;42.90;101427.50;16139717;19;129647;-61
2022/07/26 04:46:39;;;;;;;0.77;0.28;;;;;;;23.82;42.69;101432.25;16139237;19;129621;-62
2022/07/26 04:52:05;;;;;;;0.95;0.10;;;;;;;23.80;42.84;101432.53;16138520;19;129458;-61
2022/07/26 04:57:27;;;;;;;0.65;0.20;;;;;;;23.81;43.26;101434.22;16139152;19;130130;-63
2022/07/26 05:02:54;;;;;;;1.33;0.35;;;;;;;23.81;42.73;101437.03;16139116;19;129385;-62
2022/07/26 05:08:16;;;;;;;0.60;0.30;;;;;;;23.79;43.04;101438.38;16133187;19;129230;-61
2022/07/26 05:13:38;;;;;;;0.40;0.20;;;;;;;23.79;42.94;101436.44;16134104;19;132149;-59
2022/07/26 05:18:59;;;;;;;0.63;0.30;;;;;;;23.78;43.02;101445.94;16134224;19;130143;-59
2022/07/26 05:24:21;;;;;;;0.98;0.30;;;;;;;23.79;42.71;101449.56;16137101;19;130193;-59
2022/07/26 05:29:43;;;;;;;1.02;0.30;;;;;;;23.80;43.07;101459.63;16134795;19;129451;-59
2022/07/26 05:35:06;;;;;;;3.47;0.28;;;;;;;23.79;43.38;101461.59;16134300;19;129889;-60
2022/07/26 05:40:28;;;;;;;1.02;0.30;;;;;;;23.78;43.00;101454.31;16133670;19;130822;-59
2022/07/26 05:45:50;;;;;;;1.98;0.35;;;;;;;23.79;43.09;101460.72;16132291;19;130240;-59
2022/07/26 05:51:11;;;;;;;2.28;0.43;;;;;;;23.78;42.83;101459.91;16132694;19;129425;-59
2022/07/26 05:56:33;;;;;;;1.73;0.50;;;;;;;23.80;42.87;101456.81;16137645;19;129647;-59
2022/07/26 06:01:55;;;;;;;2.80;0.70;;;;;;;23.79;43.19;101469.09;16137491;19;129582;-58
2022/07/26 06:07:17;;;;;;;3.45;0.63;;;;;;;23.79;42.80;101478.34;16135071;19;129193;-59
2022/07/26 06:12:39;;;;;;;2.92;0.45;;;;;;;23.82;43.07;101475.00;16136870;19;129208;-59
2022/07/26 06:18:01;;;;;;;1.77;0.40;;;;;;;23.87;42.98;101479.81;16136350;19;130426;-59
2022/07/26 06:23:23;;;;;;;1.60;0.50;;;;;;;23.94;42.99;101480.41;16136002;19;129352;-59
2022/07/26 06:28:55;;;;;;;2.28;0.55;;;;;;;24.03;43.01;101489.13;16127861;19;130930;-59
2022/07/26 06:34:17;;;;;;;1.25;0.30;;;;;;;24.12;42.85;101495.06;16130578;19;129381;-59
2022/07/26 06:39:39;;;;;;;1.85;0.30;;;;;;;24.18;42.99;101502.34;16134665;19;129402;-59
2022/07/26 06:45:02;;;;;;;2.22;0.60;;;;;;;24.26;42.79;101515.00;16134275;19;129362;-59
2022/07/26 06:50:24;;;;;;;2.47;0.52;;;;;;;24.33;42.65;101517.56;16130561;19;129592;-59
2022/07/26 06:55:46;;;;;;;1.88;0.47;;;;;;;24.38;42.63;101517.56;16132499;19;129142;-59
2022/07/26 07:01:08;;;;;;;2.78;0.35;;;;;;;24.42;42.50;101521.50;16133512;19;130977;-59
2022/07/26 07:06:30;;;;;;;1.88;0.40;;;;;;;24.42;42.44;101521.50;16132870;19;129446;-59
2022/07/26 07:11:52;;;;;;;0.82;0.40;;;;;;;24.40;42.62;101523.72;16133833;19;128953;-59
2022/07/26 07:17:20;;;;;;;1.10;0.38;;;;;;;24.37;42.68;101532.69;16126112;19;129358;-59
2022/07/26 07:22:45;;;;;;;1.88;0.57;;;;;;;24.35;42.57;101534.91;16125529;19;129242;-59
2022/07/26 07:28:07;;;;;;;1.30;0.55;;;;;;;24.32;42.71;101539.06;16116698;19;130394;-59
2022/07/26 07:33:29;;;;;;;1.25;0.40;;;;;;;24.30;42.52;101544.13;16128295;19;129119;-59
2022/07/26 07:39:04;;;;;;;2.17;0.70;;;;;;;24.28;42.55;101546.34;16139806;19;129510;-59
2022/07/26 07:44:29;;;;;;;3.67;0.73;;;;;;;24.27;42.70;101539.06;16145257;19;129494;-60
2022/07/26 07:49:51;;;;;;;3.30;0.80;;;;;;;24.24;42.95;101540.44;16142802;19;128801;-59
2022/07/26 07:55:13;;;;;;;4.53;0.88;;;;;;;24.23;42.98;101546.25;16141861;19;129213;-59
2022/07/26 08:00:55;;;;;;;2.30;0.63;;;;;;;24.21;42.79;101549.34;16145519;19;130239;-59
2022/07/26 08:06:17;;;;;;;8.30;1.00;;;;;;;24.19;43.00;101554.34;16142679;19;129099;-59
2022/07/26 08:11:38;;;;;;;7.03;1.00;;;;;;;24.18;42.86;101561.03;16136244;19;129309;-60
2022/07/26 08:17:02;;;;;;;5.75;1.13;;;;;;;24.15;42.60;101561.56;16143493;19;130014;-58
2022/07/26 08:22:24;;;;;;;5.55;1.45;;;;;;;24.16;42.67;101556.84;16146501;19;129628;-59
2022/07/26 08:27:45;;;;;;;6.70;1.30;;;;;;;24.15;42.80;101558.78;16140010;19;129659;-59
2022/07/26 08:33:23;;;;;;;3.67;0.70;;;;;;;24.15;42.67;101564.38;16138428;19;129325;-59
2022/07/26 08:38:45;;;;;;;6.22;0.75;;;;;;;24.17;42.87;101575.31;16145175;19;129933;-59
2022/07/26 08:44:10;;;;;;;1.98;0.77;;;;;;;24.16;42.66;101566.06;16142495;19;129695;-59
2022/07/26 08:49:31;;;;;;;4.03;0.70;;;;;;;24.16;42.41;101577.25;16138574;19;129411;-60
2022/07/26 08:54:53;;;;;;;3.80;1.00;;;;;;;24.17;42.77;101587.31;16143195;19;129321;-60
2022/07/26 09:00:24;;;;;;;4.15;0.82;;;;;;;24.17;42.71;101581.72;16143318;19;129399;-59
2022/07/26 09:05:46;;;;;;;1.77;0.60;;;;;;;24.15;42.96;101583.13;16143855;19;129991;-60
2022/07/26 09:11:23;;;;;;;1.95;0.70;;;;;;;24.16;42.81;101588.44;16137286;19;129688;-59
2022/07/26 09:16:58;;;;;;;3.40;0.80;;;;;;;24.17;42.56;101597.66;16141963;19;129598;-59
2022/07/26 09:22:20;;;;;;;2.55;0.70;;;;;;;24.16;42.68;101595.97;16142535;19;129365;-59
2022/07/26 09:27:42;;;;;;;2.38;0.60;;;;;;;24.15;42.60;101595.13;16138918;19;129606;-60
2022/07/26 09:33:06;;;;;;;1.90;0.60;;;;;;;24.17;42.27;101601.28;16139071;19;129628;-60
2022/07/26 09:38:42;;;;;;;1.88;0.60;;;;;;;24.18;42.46;101594.59;16140242;19;129039;-59
2022/07/26 09:44:17;;;;;;;3.65;0.50;;;;;;;24.19;42.18;101598.22;16141100;19;129773;-59
2022/07/26 09:49:41;;;;;;;1.85;0.60;;;;;;;24.21;42.42;101605.25;16137015;19;129674;-59
2022/07/26 09:55:05;;;;;;;2.10;0.70;;;;;;;24.24;42.35;101612.25;16134339;19;129777;-59
2022/07/26 10:00:27;;;;;;;2.92;0.80;;;;;;;24.25;42.29;101612.00;16139164;19;130258;-59
2022/07/26 10:05:48;;;;;;;4.80;0.60;;;;;;;24.28;42.46;101619.03;16138355;19;129236;-59
2022/07/26 10:11:11;;;;;;;1.83;0.73;;;;;;;24.29;42.39;101615.13;16130076;19;130022;-59
2022/07/26 10:16:33;;;;;;;1.83;0.60;;;;;;;24.27;42.27;101623.75;16137790;19;131343;-59
2022/07/26 10:22:34;;;;;;;2.55;0.70;;;;;;;24.29;42.35;101642.22;16137617;19;130835;-59
2022/07/26 10:27:57;;;;;;;4.75;1.00;;;;;;;24.24;42.09;101649.50;16133703;19;129304;-59
2022/07/26 10:33:24;;;;;;;2.55;0.68;;;;;;;24.25;42.75;101656.72;16132468;19;129413;-59
2022/07/26 10:38:57;;;;;;;4.28;0.95;;;;;;;24.24;42.74;101663.47;16136014;19;131544;-59
2022/07/26 10:44:21;;;;;;;2.35;0.68;;;;;;;24.22;42.49;101651.66;16135097;19;130339;-59
2022/07/26 10:49:54;;;;;;;2.85;0.70;;;;;;;24.23;42.64;101672.94;16128851;19;130232;-59
2022/07/26 10:55:16;;;;;;;4.60;1.08;;;;;;;24.20;42.69;101680.97;16134944;19;130971;-59
2022/07/26 11:00:37;;;;;;;5.47;0.65;;;;;;;24.19;42.49;101682.94;16129935;19;128956;-59
2022/07/26 11:06:08;;;;;;;2.72;0.90;;;;;;;24.21;42.80;101689.13;16134506;19;129078;-60
2022/07/26 11:11:32;;;;;;;8.00;1.05;;;;;;;24.20;42.79;101692.16;16131703;19;128836;-60
2022/07/26 11:16:53;;;;;;;5.22;0.70;;;;;;;24.18;42.86;101700.00;16149200;19;129262;-60
2022/07/26 11:22:16;;;;;;;3.45;0.57;;;;;;;24.16;42.71;101711.44;16147757;19;129397;-60
2022/07/26 11:27:56;;;;;;;4.78;0.60;;;;;;;24.17;42.82;101698.31;16147265;19;128928;-60
2022/07/26 11:33:18;;;;;;;4.30;0.50;;;;;;;24.15;43.08;101704.16;16145606;19;130422;-60
2022/07/26 11:38:48;;;;;;;3.55;0.90;;;;;;;24.18;42.92;101703.63;16148706;19;129282;-59
2022/07/26 11:44:17;;;;;;;5.90;0.52;;;;;;;24.20;42.53;101701.41;16146664;19;129213;-59
2022/07/26 11:49:40;;;;;;;3.10;0.50;;;;;;;24.23;42.96;101694.44;16140830;19;129484;-59
2022/07/26 11:55:29;;;;;;;5.75;0.52;;;;;;;24.26;42.62;101691.16;16147164;19;129520;-60
2022/07/26 12:00:51;;;;;;;3.40;0.50;;;;;;;24.21;42.82;101691.06;16146087;19;130279;-61
2022/07/26 12:06:16;;;;;;;2.03;0.50;;;;;;;24.23;42.94;101703.69;16144526;19;129486;-62
2022/07/26 12:11:40;;;;;;;1.33;0.40;;;;;;;24.23;43.08;101706.47;16141170;19;130557;-61
2022/07/26 12:17:12;;;;;;;2.70;0.40;;;;;;;24.26;42.87;101708.75;16141241;19;129671;-62
2022/07/26 12:22:34;;;;;;;2.05;0.40;;;;;;;24.26;42.45;101716.31;16142444;19;129353;-62
2022/07/26 12:27:56;;;;;;;3.55;0.77;;;;;;;24.27;42.75;101718.84;16136495;19;129813;-59
2022/07/26 12:33:18;;;;;;;1.67;0.50;;;;;;;24.27;42.38;101716.03;16138073;19;129510;-59
2022/07/26 12:38:41;;;;;;;0.90;0.20;;;;;;;24.25;42.53;101728.59;16142512;19;130379;-59
2022/07/26 12:44:04;;;;;;;1.45;0.40;;;;;;;24.22;42.43;101743.94;16140293;19;129516;-59
2022/07/26 12:49:26;;;;;;;3.42;0.22;;;;;;;24.16;42.59;101755.34;16138721;19;130500;-62
2022/07/26 12:54:50;;;;;;;1.23;0.47;;;;;;;24.17;42.81;101762.63;16138198;19;129188;-59
2022/07/26 13:00:13;;;;;;;1.65;0.43;;;;;;;24.16;42.14;101772.09;16135861;19;129049;-59
2022/07/26 13:05:35;;;;;;;0.90;0.50;;;;;;;24.10;42.41;101768.41;16136736;19;129742;-58
2022/07/26 13:10:57;;;;;;;2.25;0.30;;;;;;;24.08;42.63;101770.63;16135220;19;129717;-59
2022/07/26 13:16:20;;;;;;;1.88;0.50;;;;;;;24.04;42.53;101763.84;16135640;19;130442;-59
2022/07/26 13:21:42;;;;;;;1.50;0.38;;;;;;;24.03;42.67;101764.97;16138843;19;129368;-59
2022/07/26 13:27:10;;;;;;;2.97;0.57;;;;;;;23.98;42.56;101768.56;16140037;19;130079;-59
2022/07/26 13:32:32;;;;;;;2.67;0.60;;;;;;;23.95;42.10;101769.94;16128902;19;130629;-59
2022/07/26 13:37:54;;;;;;;3.47;0.50;;;;;;;23.95;42.19;101769.06;16134450;19;130792;-59
2022/07/26 13:43:16;;;;;;;1.88;0.32;;;;;;;23.94;42.30;101773.84;16133620;19;131510;-59
2022/07/26 13:48:37;;;;;;;2.58;0.30;;;;;;;23.94;42.50;101771.03;16132196;19;130918;-59
2022/07/26 13:54:21;;;;;;;0.52;0.20;;;;;;;23.94;42.42;101771.03;16130672;19;130801;-59
2022/07/26 13:59:43;;;;;;;0.82;0.30;;;;;;;23.94;42.67;101776.63;16134676;19;129735;-58
2022/07/26 14:05:05;;;;;;;1.23;0.40;;;;;;;23.91;42.48;101771.56;16136280;19;129467;-59
2022/07/26 14:10:27;;;;;;;1.20;0.50;;;;;;;23.91;42.47;101760.38;16134428;19;129144;-59
2022/07/26 14:15:48;;;;;;;0.82;0.25;;;;;;;23.92;42.67;101764.84;16138385;19;130352;-59
2022/07/26 14:21:10;;;;;;;0.85;0.13;;;;;;;23.93;42.24;101771.31;16135485;19;131342;-56
2022/07/26 14:26:32;;;;;;;1.23;0.43;;;;;;;23.91;42.56;101771.56;16135928;19;128896;-59
2022/07/26 14:31:54;;;;;;;1.92;0.30;;;;;;;23.92;42.38;101778.00;16130375;19;130775;-58
2022/07/26 14:37:16;;;;;;;1.85;0.40;;;;;;;23.92;42.10;101776.03;16134714;19;129778;-59
2022/07/26 14:42:58;;;;;;;0.88;0.30;;;;;;;23.93;42.39;101771.31;16134317;19;130215;-60
2022/07/26 14:48:20;;;;;;;1.10;0.40;;;;;;;23.94;42.68;101770.19;16140239;19;129290;-59
2022/07/26 14:54:01;;;;;;;0.73;0.35;;;;;;;23.92;42.47;101778.84;16145846;19;130568;-59
2022/07/26 14:59:23;;;;;;;1.23;0.30;;;;;;;23.93;42.32;101779.69;16149446;19;129027;-59
2022/07/26 15:04:45;;;;;;;1.17;0.20;;;;;;;23.92;42.35;101767.66;16149060;19;128971;-59
2022/07/26 15:10:09;;;;;;;0.85;0.32;;;;;;;23.92;42.16;101773.25;16147798;19;129551;-59
2022/07/26 15:15:32;;;;;;;1.77;0.20;;;;;;;23.94;42.44;101772.97;16148783;19;129450;-59
2022/07/26 15:20:53;;;;;;;1.17;0.20;;;;;;;23.93;42.16;101774.94;16147658;19;129553;-58
2022/07/26 15:26:15;;;;;;;0.30;0.10;;;;;;;23.94;42.37;101768.25;16146139;19;129133;-59
2022/07/26 15:31:37;;;;;;;0.65;0.20;;;;;;;23.95;42.42;101755.97;16141550;19;130051;-59
2022/07/26 15:36:59;;;;;;;0.70;0.20;;;;;;;23.96;42.75;101760.44;16145278;19;129956;-58
2022/07/26 15:42:21;;;;;;;0.50;0.20;;;;;;;23.97;42.13;101753.75;16141506;19;129443;-58
2022/07/26 15:47:44;;;;;;;0.88;0.20;;;;;;;23.96;42.51;101746.47;16143523;19;129475;-59
2022/07/26 15:53:21;;;;;;;0.98;0.30;;;;;;;23.96;42.57;101754.00;16135760;19;130607;-60
2022/07/26 15:58:43;;;;;;;0.32;0.30;;;;;;;23.95;42.58;101758.75;16142039;19;131195;-60
2022/07/26 16:04:05;;;;;;;1.77;0.30;;;;;;;23.95;42.52;101743.91;16144148;19;129601;-59
2022/07/26 16:09:27;;;;;;;1.15;0.32;;;;;;;23.97;42.16;101744.50;16143378;19;130323;-60
2022/07/26 16:14:49;;;;;;;1.45;0.40;;;;;;;23.97;42.74;101741.72;16138709;19;130125;-58
2022/07/26 16:20:11;;;;;;;1.35;0.32;;;;;;;23.97;42.83;101742.56;16139424;19;129415;-60
2022/07/26 16:25:33;;;;;;;2.40;0.60;;;;;;;23.97;42.76;101748.16;16140995;19;129527;-60
2022/07/26 16:30:54;;;;;;;0.40;0.20;;;;;;;23.94;42.76;101748.69;16139393;19;129736;-59
2022/07/26 16:36:16;;;;;;;1.92;0.40;;;;;;;23.94;42.31;101743.09;16132199;19;129853;-60
2022/07/26 16:41:38;;;;;;;0.80;0.40;;;;;;;23.92;42.45;101750.88;16138886;19;129839;-59
2022/07/26 16:47:00;;;;;;;2.60;0.45;;;;;;;23.93;42.66;101758.16;16134742;19;129143;-59
2022/07/26 16:52:22;;;;;;;5.65;0.47;;;;;;;23.96;42.93;101760.44;16137092;19;130998;-59
2022/07/26 16:57:44;;;;;;;6.07;0.70;;;;;;;23.99;42.79;101755.44;16139046;19;129515;-59
2022/07/26 17:03:06;;;;;;;5.20;0.43;;;;;;;24.02;43.24;101754.88;16139638;19;131685;-59
2022/07/26 17:08:28;;;;;;;3.55;0.60;;;;;;;24.03;43.03;101764.97;16138259;19;128936;-59
2022/07/26 17:13:50;;;;;;;6.82;0.52;;;;;;;24.03;43.05;101768.63;16133393;19;130166;-59
2022/07/26 17:19:12;;;;;;;3.47;0.25;;;;;;;24.04;43.00;101775.03;16136622;19;129304;-57
2022/07/26 17:24:34;;;;;;;2.90;0.30;;;;;;;24.04;43.36;101775.03;16140171;19;130466;-59
2022/07/26 17:29:56;;;;;;;4.53;0.45;;;;;;;24.04;43.06;101775.03;16137024;19;129425;-60
2022/07/26 17:35:22;;;;;;;2.17;0.40;;;;;;;24.04;43.04;101781.50;16132819;19;131087;-61
2022/07/26 17:40:44;;;;;;;2.40;0.30;;;;;;;24.05;43.42;101790.72;16133949;19;128927;-61
2022/07/26 17:46:07;;;;;;;2.13;0.47;;;;;;;24.04;43.28;101789.00;16135524;19;130328;-59
2022/07/26 17:51:29;;;;;;;1.33;0.40;;;;;;;24.04;43.18;101787.09;16134872;19;130542;-60
2022/07/26 17:56:53;;;;;;;22.15;2.05;;;;;;;24.03;43.34;101784.53;16136570;19;129628;-62
2022/07/26 18:02:15;;;;;;;9.15;0.90;;;;;;;24.04;43.75;101784.28;16136950;19;129654;-61
2022/07/26 18:07:39;;;;;;;4.28;0.57;;;;;;;24.07;43.21;101780.13;16135449;19;130268;-60
2022/07/26 18:13:00;;;;;;;7.00;0.80;;;;;;;24.08;43.23;101790.19;16130123;19;129507;-61
2022/07/26 18:18:22;;;;;;;7.15;0.90;;;;;;;24.07;42.98;101780.94;16132089;19;130349;-63
2022/07/26 18:23:44;;;;;;;9.48;1.00;;;;;;;24.07;42.77;101780.13;16133294;19;129329;-61
2022/07/26 18:29:26;;;;;;;7.55;1.13;;;;;;;24.05;42.18;101782.31;16133579;19;130250;-59
2022/07/26 18:34:48;;;;;;;17.90;1.52;;;;;;;24.01;41.80;101775.56;16130563;19;129872;-59
2022/07/26 18:40:13;;;;;;;12.83;1.00;;;;;;;24.00;42.16;101785.91;16133105;19;129099;-58
2022/07/26 18:45:35;;;;;;;10.15;1.08;;;;;;;23.97;41.74;101783.63;16134303;19;129404;-58
2022/07/26 18:50:56;;;;;;;11.13;1.42;;;;;;;23.95;41.42;101783.91;16130465;19;130117;-59
2022/07/26 18:56:18;;;;;;;13.55;1.27;;;;;;;23.95;41.62;101783.91;16128334;19;129469;-59
2022/07/26 19:01:40;;;;;;;8.85;1.13;;;;;;;23.93;41.51;101786.13;16131633;19;129261;-59
2022/07/26 19:07:02;;;;;;;6.78;1.10;;;;;;;23.92;41.40;101795.59;16131736;19;129755;-60
2022/07/26 19:12:25;;;;;;;4.70;1.00;;;;;;;23.93;41.52;101793.66;16127483;19;129155;-58
2022/07/26 19:17:47;;;;;;;5.53;0.98;;;;;;;23.92;41.31;101798.41;16129403;19;128893;-58
2022/07/26 19:23:09;;;;;;;6.10;1.33;;;;;;;23.91;41.81;101807.88;16127588;19;131254;-60
2022/07/26 19:28:31;;;;;;;11.35;1.45;;;;;;;23.92;42.03;101811.53;16131999;19;129301;-59
2022/07/26 19:33:52;;;;;;;4.10;0.68;;;;;;;23.91;42.54;101821.84;16130513;19;129102;-60
2022/07/26 19:39:14;;;;;;;11.18;1.52;;;;;;;23.85;41.87;101831.31;16145770;19;129640;-59
2022/07/26 19:44:36;;;;;;;6.03;1.00;;;;;;;23.82;41.61;101834.59;16144672;19;129009;-59
2022/07/26 19:49:58;;;;;;;15.00;1.08;;;;;;;23.81;42.03;101844.09;16144537;19;129598;-59
2022/07/26 19:55:19;;;;;;;8.02;1.10;;;;;;;23.81;41.59;101839.38;16138445;19;129604;-59
2022/07/26 20:00:41;;;;;;;5.35;0.77;;;;;;;23.81;42.26;101838.50;16142674;19;129070;-60
2022/07/26 20:06:03;;;;;;;7.55;1.00;;;;;;;23.79;41.56;101852.75;16140662;19;129554;-62
2022/07/26 20:11:26;;;;;;;4.70;0.90;;;;;;;23.75;41.75;101867.50;16138445;19;129965;-62
2022/07/26 20:16:49;;;;;;;3.47;0.85;;;;;;;23.72;41.47;101865.22;16142279;19;130107;-62
2022/07/26 20:22:16;;;;;;;4.65;0.80;;;;;;;23.71;41.56;101872.72;16140766;19;129561;-61
2022/07/26 20:27:38;;;;;;;5.50;0.93;;;;;;;23.66;41.60;101876.31;16137870;19;129613;-63
2022/07/26 20:33:00;;;;;;;5.38;0.68;;;;;;;23.65;41.81;101880.19;16136721;19;129323;-63
2022/07/26 20:38:22;;;;;;;3.17;0.63;;;;;;;23.64;42.02;101877.66;16139475;19;129485;-62
2022/07/26 20:43:44;;;;;;;5.25;0.70;;;;;;;23.61;41.67;101890.22;16138798;19;129318;-62
2022/07/26 20:49:06;;;;;;;1.92;0.65;;;;;;;23.60;41.67;101896.91;16139866;19;129680;-62
2022/07/26 20:54:30;;;;;;;1.10;0.63;;;;;;;23.56;41.55;101904.06;16135375;19;129029;-62
2022/07/26 20:59:51;;;;;;;3.65;0.68;;;;;;;23.55;41.76;101910.75;16141262;19;130896;-63
2022/07/26 21:05:13;;;;;;;1.27;0.50;;;;;;;23.54;41.58;101917.44;16139903;19;130262;-62
2022/07/26 21:10:35;;;;;;;2.00;0.50;;;;;;;23.51;41.21;101923.53;16141927;19;130468;-62
2022/07/26 21:15:57;;;;;;;3.58;0.80;;;;;;;23.51;41.19;101920.72;16140959;19;129742;-71
2022/07/26 21:21:20;;;;;;;1.42;0.60;;;;;;;23.49;41.46;101925.75;16139699;19;129688;-71
2022/07/26 21:26:43;;;;;;;1.80;0.68;;;;;;;23.49;41.24;101925.75;16136157;19;130989;-69
2022/07/26 21:32:05;;;;;;;6.25;0.70;;;;;;;23.46;41.19;101924.28;16138458;19;131359;-63
2022/07/26 21:37:27;;;;;;;2.30;0.60;;;;;;;23.44;40.90;101926.53;16142482;19;130291;-67
2022/07/26 21:42:49;;;;;;;2.15;0.60;;;;;;;23.45;40.95;101925.38;16139905;19;129621;-71
2022/07/26 21:48:10;;;;;;;2.17;0.50;;;;;;;23.45;41.16;101930.16;16135935;19;129547;-68
2022/07/26 21:53:32;;;;;;;2.95;0.90;;;;;;;23.44;41.15;101934.03;16135456;19;129207;-62
2022/07/26 21:58:54;;;;;;;3.28;0.50;;;;;;;23.40;41.27;101932.84;16138360;19;129043;-68
2022/07/26 22:04:16;;;;;;;2.10;0.40;;;;;;;23.41;41.20;101931.75;16150501;19;129684;-61
2022/07/26 22:09:38;;;;;;;1.88;0.60;;;;;;;23.40;41.28;101932.84;16151128;19;129803;-62
2022/07/26 22:15:00;;;;;;;2.55;0.60;;;;;;;23.39;40.72;101940.38;16146280;19;129034;-61
2022/07/26 22:20:22;;;;;;;3.42;0.93;;;;;;;23.38;41.13;101932.28;16145385;19;130221;-61
2022/07/26 22:25:44;;;;;;;3.10;0.63;;;;;;;23.38;41.27;101944.28;16138885;19;130545;-62
2022/07/26 22:31:06;;;;;;;2.53;0.80;;;;;;;23.39;41.26;101945.09;16133794;19;129412;-62
2022/07/26 22:36:28;;;;;;;1.17;0.40;;;;;;;23.38;41.31;101946.25;16132788;19;130498;-62
2022/07/26 22:41:50;;;;;;;0.85;0.40;;;;;;;23.38;41.41;101937.88;16215523;19;129227;-62
2022/07/26 22:47:31;;;;;;;2.92;0.60;;;;;;;23.37;41.41;101945.38;16170961;19;129091;-62
2022/07/26 22:52:54;;;;;;;1.90;0.50;;;;;;;23.37;41.52;101947.34;16135721;19;129747;-62
2022/07/26 22:58:16;;;;;;;2.38;0.70;;;;;;;23.37;41.61;101944.53;16140269;19;129206;-62
2022/07/26 23:03:37;;;;;;;1.92;0.40;;;;;;;23.36;41.79;101946.47;16139426;19;130139;-62
2022/07/26 23:09:01;;;;;;;1.20;0.35;;;;;;;23.35;41.91;101936.41;16144277;19;129578;-62
2022/07/26 23:14:23;;;;;;;1.77;0.50;;;;;;;23.35;42.07;101948.44;16154948;19;129214;-62
2022/07/26 23:19:45;;;;;;;0.73;0.30;;;;;;;23.37;42.03;101950.13;16231115;19;129266;-61
2022/07/26 23:25:07;;;;;;;2.00;0.50;;;;;;;23.37;42.16;101952.91;16230978;19;127645;-62
2022/07/26 23:30:29;;;;;;;1.65;0.45;;;;;;;23.37;42.53;101950.13;16230703;19;129411;-62
2022/07/26 23:35:51;;;;;;;0.20;0.20;;;;;;;23.36;42.59;101954.84;16221559;19;128210;-62
2022/07/26 23:41:13;;;;;;;0.50;0.30;;;;;;;23.33;42.92;101956.22;16224834;19;128954;-62
2022/07/26 23:46:35;;;;;;;0.98;0.30;;;;;;;23.35;43.08;101959.59;16232431;19;128765;-62
2022/07/26 23:51:56;;;;;;;1.02;0.30;;;;;;;23.35;42.54;101953.16;16229169;19;130637;-62
2022/07/26 23:57:18;;;;;;;0.90;0.30;;;;;;;23.34;42.76;101954.25;16230835;19;129400;-62
